sensor_id;sensor_type;location;lat;lon;timestamp;temperature;humidity
49184;DHT22;35021;49.214;12.270;2023-12-28T00:02:12;20.20;32.20
49184;DHT22;35021;49.214;12.270;2023-12-28T00:04:40;20.20;32.20
49184;DHT22;35021;49.214;12.270;2023-12-28T00:07:07;20.20;32.20
49184;DHT22;35021;49.214;12.270;2023-12-28T00:09:34;20.20;32.20
49184;DHT22;35021;49.214;12.270;2023-12-28T00:12:01;20.10;32.20
49184;DHT22;35021;49.214;12.270;2023-12-28T00:14:29;20.10;32.20
49184;DHT22;35021;49.214;12.270;2023-12-28T00:16:55;20.10;32.20
49184;DHT22;35021;49.214;12.270;2023-12-28T00:19:22;20.10;32.10
49184;DHT22;35021;49.214;12.270;2023-12-28T00:21:50;20.10;32.10
49184;DHT22;35021;49.214;12.270;2023-12-28T00:24:20;20.10;32.10
49184;DHT22;35021;49.214;12.270;2023-12-28T00:26:47;20.10;32.20
49184;DHT22;35021;49.214;12.270;2023-12-28T00:29:14;20.10;32.20
49184;DHT22;35021;49.214;12.270;2023-12-28T00:31:41;20.10;32.20
49184;DHT22;35021;49.214;12.270;2023-12-28T00:34:08;20.10;32.10
49184;DHT22;35021;49.214;12.270;2023-12-28T00:36:35;20.10;32.10
49184;DHT22;35021;49.214;12.270;2023-12-28T00:39:02;20.10;32.00
49184;DHT22;35021;49.214;12.270;2023-12-28T00:41:30;20.10;31.90
49184;DHT22;35021;49.214;12.270;2023-12-28T00:43:57;20.10;31.90
49184;DHT22;35021;49.214;12.270;2023-12-28T00:46:24;20.10;31.90
49184;DHT22;35021;49.214;12.270;2023-12-28T00:48:51;20.20;32.00
49184;DHT22;35021;49.214;12.270;2023-12-28T00:51:18;20.20;32.80
49184;DHT22;35021;49.214;12.270;2023-12-28T00:53:45;20.20;32.00
49184;DHT22;35021;49.214;12.270;2023-12-28T00:56:12;20.20;32.00
49184;DHT22;35021;49.214;12.270;2023-12-28T00:58:39;20.20;32.00
49184;DHT22;35021;49.214;12.270;2023-12-28T01:01:08;20.20;32.00
49184;DHT22;35021;49.214;12.270;2023-12-28T01:03:35;20.20;32.00
49184;DHT22;35021;49.214;12.270;2023-12-28T01:06:03;20.20;31.90
49184;DHT22;35021;49.214;12.270;2023-12-28T01:08:30;20.20;31.90
49184;DHT22;35021;49.214;12.270;2023-12-28T01:10:57;20.20;31.80
49184;DHT22;35021;49.214;12.270;2023-12-28T01:13:24;20.20;31.80
49184;DHT22;35021;49.214;12.270;2023-12-28T01:15:51;20.30;31.70
49184;DHT22;35021;49.214;12.270;2023-12-28T01:18:19;20.20;31.60
49184;DHT22;35021;49.214;12.270;2023-12-28T01:20:46;20.30;31.60
49184;DHT22;35021;49.214;12.270;2023-12-28T01:23:13;20.30;31.50
49184;DHT22;35021;49.214;12.270;2023-12-28T01:25:40;20.20;31.50
49184;DHT22;35021;49.214;12.270;2023-12-28T01:28:07;20.20;31.40
49184;DHT22;35021;49.214;12.270;2023-12-28T01:30:34;20.20;31.50
49184;DHT22;35021;49.214;12.270;2023-12-28T01:33:01;20.20;31.50
49184;DHT22;35021;49.214;12.270;2023-12-28T01:35:28;20.20;31.50
49184;DHT22;35021;49.214;12.270;2023-12-28T01:37:55;20.20;31.50
49184;DHT22;35021;49.214;12.270;2023-12-28T01:40:23;20.10;31.40
49184;DHT22;35021;49.214;12.270;2023-12-28T01:42:50;20.10;31.40
49184;DHT22;35021;49.214;12.270;2023-12-28T01:45:17;20.10;31.50
49184;DHT22;35021;49.214;12.270;2023-12-28T01:47:44;20.10;31.40
49184;DHT22;35021;49.214;12.270;2023-12-28T01:50:11;20.10;31.40
49184;DHT22;35021;49.214;12.270;2023-12-28T01:52:38;20.10;31.40
49184;DHT22;35021;49.214;12.270;2023-12-28T01:55:05;20.10;31.30
49184;DHT22;35021;49.214;12.270;2023-12-28T01:57:33;20.10;31.30
49184;DHT22;35021;49.214;12.270;2023-12-28T02:00:00;20.10;31.30
49184;DHT22;35021;49.214;12.270;2023-12-28T02:02:31;20.10;31.30
49184;DHT22;35021;49.214;12.270;2023-12-28T02:04:58;20.10;31.30
49184;DHT22;35021;49.214;12.270;2023-12-28T02:07:26;20.10;31.20
49184;DHT22;35021;49.214;12.270;2023-12-28T02:09:53;20.10;31.20
49184;DHT22;35021;49.214;12.270;2023-12-28T02:12:20;20.20;31.30
49184;DHT22;35021;49.214;12.270;2023-12-28T02:14:48;20.20;31.30
49184;DHT22;35021;49.214;12.270;2023-12-28T02:19:49;20.20;31.40
49184;DHT22;35021;49.214;12.270;2023-12-28T02:22:17;20.20;32.20
49184;DHT22;35021;49.214;12.270;2023-12-28T02:24:57;20.20;31.40
49184;DHT22;35021;49.214;12.270;2023-12-28T02:27:24;20.20;31.50
49184;DHT22;35021;49.214;12.270;2023-12-28T02:29:51;20.20;31.60
49184;DHT22;35021;49.214;12.270;2023-12-28T02:32:19;20.20;31.50
49184;DHT22;35021;49.214;12.270;2023-12-28T02:34:49;20.20;31.50
49184;DHT22;35021;49.214;12.270;2023-12-28T02:37:20;20.10;31.30
49184;DHT22;35021;49.214;12.270;2023-12-28T02:39:47;20.20;31.30
49184;DHT22;35021;49.214;12.270;2023-12-28T02:42:16;20.20;31.20
49184;DHT22;35021;49.214;12.270;2023-12-28T02:44:43;20.20;31.20
49184;DHT22;35021;49.214;12.270;2023-12-28T02:47:10;20.30;31.20
49184;DHT22;35021;49.214;12.270;2023-12-28T02:49:37;20.30;31.20
49184;DHT22;35021;49.214;12.270;2023-12-28T02:52:04;20.40;31.20
49184;DHT22;35021;49.214;12.270;2023-12-28T02:54:31;20.40;31.00
49184;DHT22;35021;49.214;12.270;2023-12-28T02:56:58;20.50;30.90
49184;DHT22;35021;49.214;12.270;2023-12-28T02:59:25;20.60;30.80
49184;DHT22;35021;49.214;12.270;2023-12-28T03:01:52;20.60;30.70
49184;DHT22;35021;49.214;12.270;2023-12-28T03:04:19;20.70;30.70
49184;DHT22;35021;49.214;12.270;2023-12-28T03:06:46;20.70;30.70
49184;DHT22;35021;49.214;12.270;2023-12-28T03:09:13;20.80;30.70
49184;DHT22;35021;49.214;12.270;2023-12-28T03:11:40;20.80;30.70
49184;DHT22;35021;49.214;12.270;2023-12-28T03:14:07;20.90;30.80
49184;DHT22;35021;49.214;12.270;2023-12-28T03:16:34;20.90;30.80
49184;DHT22;35021;49.214;12.270;2023-12-28T03:19:01;20.90;30.80
49184;DHT22;35021;49.214;12.270;2023-12-28T03:21:28;20.90;30.80
49184;DHT22;35021;49.214;12.270;2023-12-28T03:23:55;20.90;30.80
49184;DHT22;35021;49.214;12.270;2023-12-28T03:26:23;20.90;30.80
49184;DHT22;35021;49.214;12.270;2023-12-28T03:28:50;20.80;30.80
49184;DHT22;35021;49.214;12.270;2023-12-28T03:31:17;20.90;30.90
49184;DHT22;35021;49.214;12.270;2023-12-28T03:33:45;20.90;30.80
49184;DHT22;35021;49.214;12.270;2023-12-28T03:36:18;21.00;30.80
49184;DHT22;35021;49.214;12.270;2023-12-28T03:38:46;21.00;30.90
49184;DHT22;35021;49.214;12.270;2023-12-28T03:41:19;21.10;31.10
49184;DHT22;35021;49.214;12.270;2023-12-28T03:43:47;21.10;31.20
49184;DHT22;35021;49.214;12.270;2023-12-28T03:46:14;21.20;31.40
49184;DHT22;35021;49.214;12.270;2023-12-28T03:48:41;21.30;31.50
49184;DHT22;35021;49.214;12.270;2023-12-28T03:51:08;21.30;31.50
49184;DHT22;35021;49.214;12.270;2023-12-28T03:53:39;21.30;31.70
49184;DHT22;35021;49.214;12.270;2023-12-28T03:56:06;21.30;31.70
49184;DHT22;35021;49.214;12.270;2023-12-28T03:58:33;21.30;31.80
49184;DHT22;35021;49.214;12.270;2023-12-28T04:01:00;21.30;31.90
49184;DHT22;35021;49.214;12.270;2023-12-28T04:03:28;21.40;32.00
49184;DHT22;35021;49.214;12.270;2023-12-28T04:05:55;21.30;32.00
49184;DHT22;35021;49.214;12.270;2023-12-28T04:08:22;21.30;32.00
49184;DHT22;35021;49.214;12.270;2023-12-28T04:10:49;21.40;32.00
49184;DHT22;35021;49.214;12.270;2023-12-28T04:13:16;21.40;32.00
49184;DHT22;35021;49.214;12.270;2023-12-28T04:15:43;21.50;32.00
49184;DHT22;35021;49.214;12.270;2023-12-28T04:18:10;21.50;31.90
49184;DHT22;35021;49.214;12.270;2023-12-28T04:20:37;21.60;31.90
49184;DHT22;35021;49.214;12.270;2023-12-28T04:23:04;21.60;31.80
49184;DHT22;35021;49.214;12.270;2023-12-28T04:25:31;21.60;31.70
49184;DHT22;35021;49.214;12.270;2023-12-28T04:27:58;21.70;31.70
49184;DHT22;35021;49.214;12.270;2023-12-28T04:30:25;21.70;31.60
49184;DHT22;35021;49.214;12.270;2023-12-28T04:32:54;21.70;31.70
49184;DHT22;35021;49.214;12.270;2023-12-28T04:35:21;21.70;31.70
49184;DHT22;35021;49.214;12.270;2023-12-28T04:37:48;21.60;31.60
49184;DHT22;35021;49.214;12.270;2023-12-28T04:40:15;21.60;31.70
49184;DHT22;35021;49.214;12.270;2023-12-28T04:42:43;21.60;31.80
49184;DHT22;35021;49.214;12.270;2023-12-28T04:45:10;21.60;31.80
49184;DHT22;35021;49.214;12.270;2023-12-28T04:47:37;21.50;31.80
49184;DHT22;35021;49.214;12.270;2023-12-28T04:50:05;21.50;31.80
49184;DHT22;35021;49.214;12.270;2023-12-28T04:52:32;21.60;31.80
49184;DHT22;35021;49.214;12.270;2023-12-28T04:54:59;21.60;31.70
49184;DHT22;35021;49.214;12.270;2023-12-28T04:57:26;21.60;31.60
49184;DHT22;35021;49.214;12.270;2023-12-28T04:59:54;21.70;31.60
49184;DHT22;35021;49.214;12.270;2023-12-28T05:02:21;21.70;31.50
49184;DHT22;35021;49.214;12.270;2023-12-28T05:04:48;21.70;31.40
49184;DHT22;35021;49.214;12.270;2023-12-28T05:07:15;21.80;31.40
49184;DHT22;35021;49.214;12.270;2023-12-28T05:09:42;21.80;31.40
49184;DHT22;35021;49.214;12.270;2023-12-28T05:12:09;21.80;31.30
49184;DHT22;35021;49.214;12.270;2023-12-28T05:14:36;21.80;31.30
49184;DHT22;35021;49.214;12.270;2023-12-28T05:17:03;21.80;31.30
49184;DHT22;35021;49.214;12.270;2023-12-28T05:19:30;21.70;31.30
49184;DHT22;35021;49.214;12.270;2023-12-28T05:21:57;21.70;31.40
49184;DHT22;35021;49.214;12.270;2023-12-28T05:24:24;21.60;31.50
49184;DHT22;35021;49.214;12.270;2023-12-28T05:26:51;21.50;31.60
49184;DHT22;35021;49.214;12.270;2023-12-28T05:29:18;21.50;31.70
49184;DHT22;35021;49.214;12.270;2023-12-28T05:31:45;21.40;31.70
49184;DHT22;35021;49.214;12.270;2023-12-28T05:34:12;21.40;31.70
49184;DHT22;35021;49.214;12.270;2023-12-28T05:36:40;21.40;31.70
49184;DHT22;35021;49.214;12.270;2023-12-28T05:39:08;21.50;31.70
49184;DHT22;35021;49.214;12.270;2023-12-28T05:41:36;21.50;31.70
49184;DHT22;35021;49.214;12.270;2023-12-28T05:44:03;21.50;31.60
49184;DHT22;35021;49.214;12.270;2023-12-28T05:46:30;21.50;31.50
49184;DHT22;35021;49.214;12.270;2023-12-28T05:48:57;21.60;31.50
49184;DHT22;35021;49.214;12.270;2023-12-28T05:51:24;21.60;31.40
49184;DHT22;35021;49.214;12.270;2023-12-28T05:53:51;21.60;31.30
49184;DHT22;35021;49.214;12.270;2023-12-28T05:56:18;21.70;31.20
49184;DHT22;35021;49.214;12.270;2023-12-28T05:58:45;21.70;31.30
49184;DHT22;35021;49.214;12.270;2023-12-28T06:01:12;21.70;31.20
49184;DHT22;35021;49.214;12.270;2023-12-28T06:03:39;21.70;31.20
49184;DHT22;35021;49.214;12.270;2023-12-28T06:06:06;21.70;31.20
49184;DHT22;35021;49.214;12.270;2023-12-28T06:08:33;21.70;31.30
49184;DHT22;35021;49.214;12.270;2023-12-28T06:11:00;21.60;31.40
49184;DHT22;35021;49.214;12.270;2023-12-28T06:13:28;21.50;31.50
49184;DHT22;35021;49.214;12.270;2023-12-28T06:15:54;21.40;31.60
49184;DHT22;35021;49.214;12.270;2023-12-28T06:18:22;21.30;31.70
49184;DHT22;35021;49.214;12.270;2023-12-28T06:20:49;21.30;31.80
49184;DHT22;35021;49.214;12.270;2023-12-28T06:23:16;21.30;31.80
49184;DHT22;35021;49.214;12.270;2023-12-28T06:25:43;21.30;31.80
49184;DHT22;35021;49.214;12.270;2023-12-28T06:28:10;21.30;31.90
49184;DHT22;35021;49.214;12.270;2023-12-28T06:30:37;21.30;31.90
49184;DHT22;35021;49.214;12.270;2023-12-28T06:33:06;21.30;31.80
49184;DHT22;35021;49.214;12.270;2023-12-28T06:35:33;21.30;31.70
49184;DHT22;35021;49.214;12.270;2023-12-28T06:38:00;21.40;31.60
49184;DHT22;35021;49.214;12.270;2023-12-28T06:40:28;21.40;31.60
49184;DHT22;35021;49.214;12.270;2023-12-28T06:42:55;21.40;31.50
49184;DHT22;35021;49.214;12.270;2023-12-28T06:45:22;21.50;31.50
49184;DHT22;35021;49.214;12.270;2023-12-28T06:47:55;21.50;31.50
49184;DHT22;35021;49.214;12.270;2023-12-28T06:50:22;21.40;31.50
49184;DHT22;35021;49.214;12.270;2023-12-28T06:52:49;21.40;31.40
49184;DHT22;35021;49.214;12.270;2023-12-28T06:55:16;21.40;31.50
49184;DHT22;35021;49.214;12.270;2023-12-28T06:57:43;21.40;31.60
49184;DHT22;35021;49.214;12.270;2023-12-28T07:00:10;21.30;31.60
49184;DHT22;35021;49.214;12.270;2023-12-28T07:02:38;21.30;31.60
49184;DHT22;35021;49.214;12.270;2023-12-28T07:05:05;21.40;31.70
49184;DHT22;35021;49.214;12.270;2023-12-28T07:07:32;21.40;31.70
49184;DHT22;35021;49.214;12.270;2023-12-28T07:09:59;21.40;31.60
49184;DHT22;35021;49.214;12.270;2023-12-28T07:12:26;21.40;31.50
49184;DHT22;35021;49.214;12.270;2023-12-28T07:14:53;21.40;31.60
49184;DHT22;35021;49.214;12.270;2023-12-28T07:17:20;21.40;31.60
49184;DHT22;35021;49.214;12.270;2023-12-28T07:19:47;21.40;31.60
49184;DHT22;35021;49.214;12.270;2023-12-28T07:22:14;21.40;31.60
49184;DHT22;35021;49.214;12.270;2023-12-28T07:24:41;21.40;31.60
49184;DHT22;35021;49.214;12.270;2023-12-28T07:27:08;21.40;31.60
49184;DHT22;35021;49.214;12.270;2023-12-28T07:29:35;21.40;31.60
49184;DHT22;35021;49.214;12.270;2023-12-28T07:32:02;21.40;31.60
49184;DHT22;35021;49.214;12.270;2023-12-28T07:34:29;21.40;31.70
49184;DHT22;35021;49.214;12.270;2023-12-28T07:36:56;21.40;31.70
49184;DHT22;35021;49.214;12.270;2023-12-28T07:39:23;21.30;31.70
49184;DHT22;35021;49.214;12.270;2023-12-28T07:41:50;21.30;31.70
49184;DHT22;35021;49.214;12.270;2023-12-28T07:44:17;21.30;31.90
49184;DHT22;35021;49.214;12.270;2023-12-28T07:46:44;21.20;31.80
49184;DHT22;35021;49.214;12.270;2023-12-28T07:49:11;21.20;31.90
49184;DHT22;35021;49.214;12.270;2023-12-28T07:51:38;21.20;31.90
49184;DHT22;35021;49.214;12.270;2023-12-28T07:54:05;21.20;31.90
49184;DHT22;35021;49.214;12.270;2023-12-28T07:56:32;21.20;31.80
49184;DHT22;35021;49.214;12.270;2023-12-28T07:58:59;21.30;31.80
49184;DHT22;35021;49.214;12.270;2023-12-28T08:01:26;21.30;31.80
49184;DHT22;35021;49.214;12.270;2023-12-28T08:03:53;21.40;31.80
49184;DHT22;35021;49.214;12.270;2023-12-28T08:06:20;21.40;31.70
49184;DHT22;35021;49.214;12.270;2023-12-28T08:08:47;21.50;31.60
49184;DHT22;35021;49.214;12.270;2023-12-28T08:11:14;21.50;31.50
49184;DHT22;35021;49.214;12.270;2023-12-28T08:13:41;21.60;31.50
49184;DHT22;35021;49.214;12.270;2023-12-28T08:16:09;21.60;31.30
49184;DHT22;35021;49.214;12.270;2023-12-28T08:18:36;21.60;31.20
49184;DHT22;35021;49.214;12.270;2023-12-28T08:21:03;21.60;31.20
49184;DHT22;35021;49.214;12.270;2023-12-28T08:23:30;21.60;31.20
49184;DHT22;35021;49.214;12.270;2023-12-28T08:25:57;21.60;31.30
49184;DHT22;35021;49.214;12.270;2023-12-28T08:28:24;21.50;31.20
49184;DHT22;35021;49.214;12.270;2023-12-28T08:30:51;21.50;31.40
49184;DHT22;35021;49.214;12.270;2023-12-28T08:33:18;21.40;32.20
49184;DHT22;35021;49.214;12.270;2023-12-28T08:35:45;21.30;31.60
49184;DHT22;35021;49.214;12.270;2023-12-28T08:38:12;21.30;31.70
49184;DHT22;35021;49.214;12.270;2023-12-28T08:40:39;21.20;31.80
49184;DHT22;35021;49.214;12.270;2023-12-28T08:43:06;21.20;31.90
49184;DHT22;35021;49.214;12.270;2023-12-28T08:45:33;21.20;32.00
49184;DHT22;35021;49.214;12.270;2023-12-28T08:48:03;21.20;32.10
49184;DHT22;35021;49.214;12.270;2023-12-28T08:50:30;21.20;32.00
49184;DHT22;35021;49.214;12.270;2023-12-28T08:52:57;21.20;32.00
49184;DHT22;35021;49.214;12.270;2023-12-28T08:55:24;21.20;32.00
49184;DHT22;35021;49.214;12.270;2023-12-28T08:57:51;21.20;32.00
49184;DHT22;35021;49.214;12.270;2023-12-28T09:00:18;21.30;31.90
49184;DHT22;35021;49.214;12.270;2023-12-28T09:02:46;21.30;31.80
49184;DHT22;35021;49.214;12.270;2023-12-28T09:05:13;21.40;31.80
49184;DHT22;35021;49.214;12.270;2023-12-28T09:07:40;21.40;31.70
49184;DHT22;35021;49.214;12.270;2023-12-28T09:10:10;21.40;31.70
49184;DHT22;35021;49.214;12.270;2023-12-28T09:12:39;21.40;31.70
49184;DHT22;35021;49.214;12.270;2023-12-28T09:15:07;21.40;31.80
49184;DHT22;35021;49.214;12.270;2023-12-28T09:17:34;21.40;31.80
49184;DHT22;35021;49.214;12.270;2023-12-28T09:20:01;21.40;31.80
49184;DHT22;35021;49.214;12.270;2023-12-28T09:22:29;21.30;31.80
49184;DHT22;35021;49.214;12.270;2023-12-28T09:24:57;21.30;31.90
49184;DHT22;35021;49.214;12.270;2023-12-28T09:27:24;21.20;32.00
49184;DHT22;35021;49.214;12.270;2023-12-28T09:29:52;21.20;32.10
49184;DHT22;35021;49.214;12.270;2023-12-28T09:32:19;21.10;32.10
49184;DHT22;35021;49.214;12.270;2023-12-28T09:34:46;21.10;32.20
49184;DHT22;35021;49.214;12.270;2023-12-28T09:37:13;21.10;32.20
49184;DHT22;35021;49.214;12.270;2023-12-28T09:39:40;21.10;32.20
49184;DHT22;35021;49.214;12.270;2023-12-28T09:42:09;21.10;32.10
49184;DHT22;35021;49.214;12.270;2023-12-28T09:44:38;21.20;32.10
49184;DHT22;35021;49.214;12.270;2023-12-28T09:47:05;21.20;32.10
49184;DHT22;35021;49.214;12.270;2023-12-28T09:49:33;21.20;32.10
49184;DHT22;35021;49.214;12.270;2023-12-28T09:52:02;21.20;32.10
49184;DHT22;35021;49.214;12.270;2023-12-28T09:54:29;21.20;32.10
49184;DHT22;35021;49.214;12.270;2023-12-28T09:56:57;21.20;32.10
49184;DHT22;35021;49.214;12.270;2023-12-28T09:59:31;21.20;32.10
49184;DHT22;35021;49.214;12.270;2023-12-28T10:02:25;21.20;32.20
49184;DHT22;35021;49.214;12.270;2023-12-28T10:04:52;21.20;32.20
49184;DHT22;35021;49.214;12.270;2023-12-28T10:07:18;21.20;32.30
49184;DHT22;35021;49.214;12.270;2023-12-28T10:09:45;21.10;32.30
49184;DHT22;35021;49.214;12.270;2023-12-28T10:12:12;21.10;32.50
49184;DHT22;35021;49.214;12.270;2023-12-28T10:14:40;21.00;32.50
49184;DHT22;35021;49.214;12.270;2023-12-28T10:17:07;21.00;32.60
49184;DHT22;35021;49.214;12.270;2023-12-28T10:19:33;21.10;32.70
49184;DHT22;35021;49.214;12.270;2023-12-28T10:22:01;21.10;32.60
49184;DHT22;35021;49.214;12.270;2023-12-28T10:24:28;21.10;32.50
49184;DHT22;35021;49.214;12.270;2023-12-28T10:26:55;21.20;32.60
49184;DHT22;35021;49.214;12.270;2023-12-28T10:29:25;21.20;32.40
49184;DHT22;35021;49.214;12.270;2023-12-28T10:31:53;21.30;32.50
49184;DHT22;35021;49.214;12.270;2023-12-28T10:34:21;21.30;32.40
49184;DHT22;35021;49.214;12.270;2023-12-28T10:36:48;21.40;32.30
49184;DHT22;35021;49.214;12.270;2023-12-28T10:39:16;21.40;32.20
49184;DHT22;35021;49.214;12.270;2023-12-28T10:41:47;21.40;32.20
49184;DHT22;35021;49.214;12.270;2023-12-28T10:44:17;21.40;32.20
49184;DHT22;35021;49.214;12.270;2023-12-28T10:46:46;21.50;32.30
49184;DHT22;35021;49.214;12.270;2023-12-28T10:49:16;21.50;32.30
49184;DHT22;35021;49.214;12.270;2023-12-28T10:51:46;21.50;32.30
49184;DHT22;35021;49.214;12.270;2023-12-28T10:56:56;21.60;32.20
49184;DHT22;35021;49.214;12.270;2023-12-28T11:02:14;21.70;32.20
49184;DHT22;35021;49.214;12.270;2023-12-28T11:04:50;21.70;32.30
49184;DHT22;35021;49.214;12.270;2023-12-28T11:07:18;21.70;32.30
49184;DHT22;35021;49.214;12.270;2023-12-28T11:09:45;21.80;32.40
49184;DHT22;35021;49.214;12.270;2023-12-28T11:12:15;21.80;32.40
49184;DHT22;35021;49.214;12.270;2023-12-28T11:14:45;21.80;32.40
49184;DHT22;35021;49.214;12.270;2023-12-28T11:17:15;21.80;32.50
49184;DHT22;35021;49.214;12.270;2023-12-28T11:19:48;21.80;32.50
49184;DHT22;35021;49.214;12.270;2023-12-28T11:22:21;21.90;32.60
49184;DHT22;35021;49.214;12.270;2023-12-28T11:24:48;21.90;32.50
49184;DHT22;35021;49.214;12.270;2023-12-28T11:27:15;21.90;32.60
49184;DHT22;35021;49.214;12.270;2023-12-28T11:29:43;21.90;32.60
49184;DHT22;35021;49.214;12.270;2023-12-28T11:32:11;21.90;32.60
49184;DHT22;35021;49.214;12.270;2023-12-28T11:34:40;21.90;32.60
49184;DHT22;35021;49.214;12.270;2023-12-28T11:37:07;22.00;32.60
49184;DHT22;35021;49.214;12.270;2023-12-28T11:39:37;22.00;32.70
49184;DHT22;35021;49.214;12.270;2023-12-28T11:42:06;22.00;32.70
49184;DHT22;35021;49.214;12.270;2023-12-28T11:44:37;22.00;32.70
49184;DHT22;35021;49.214;12.270;2023-12-28T11:47:12;22.00;32.70
49184;DHT22;35021;49.214;12.270;2023-12-28T11:50:23;22.00;32.60
49184;DHT22;35021;49.214;12.270;2023-12-28T11:52:39;22.00;32.60
49184;DHT22;35021;49.214;12.270;2023-12-28T11:55:09;22.00;32.60
49184;DHT22;35021;49.214;12.270;2023-12-28T11:57:36;22.10;32.60
49184;DHT22;35021;49.214;12.270;2023-12-28T12:00:05;22.10;32.60
49184;DHT22;35021;49.214;12.270;2023-12-28T12:02:43;22.10;32.50
49184;DHT22;35021;49.214;12.270;2023-12-28T12:05:12;22.10;32.50
49184;DHT22;35021;49.214;12.270;2023-12-28T12:07:42;22.10;32.50
49184;DHT22;35021;49.214;12.270;2023-12-28T12:10:14;22.10;32.50
49184;DHT22;35021;49.214;12.270;2023-12-28T12:12:41;22.10;32.50
49184;DHT22;35021;49.214;12.270;2023-12-28T12:15:09;22.10;32.40
49184;DHT22;35021;49.214;12.270;2023-12-28T12:17:36;22.20;32.40
49184;DHT22;35021;49.214;12.270;2023-12-28T12:20:03;22.20;32.20
49184;DHT22;35021;49.214;12.270;2023-12-28T12:22:31;22.20;32.10
49184;DHT22;35021;49.214;12.270;2023-12-28T12:25:10;22.30;32.00
49184;DHT22;35021;49.214;12.270;2023-12-28T12:27:37;22.30;31.90
49184;DHT22;35021;49.214;12.270;2023-12-28T12:30:07;22.40;31.80
49184;DHT22;35021;49.214;12.270;2023-12-28T12:32:35;22.40;31.70
49184;DHT22;35021;49.214;12.270;2023-12-28T12:35:06;22.40;31.60
49184;DHT22;35021;49.214;12.270;2023-12-28T12:37:33;22.40;31.60
49184;DHT22;35021;49.214;12.270;2023-12-28T12:40:00;22.40;31.60
49184;DHT22;35021;49.214;12.270;2023-12-28T12:42:28;22.50;31.60
49184;DHT22;35021;49.214;12.270;2023-12-28T12:44:55;22.50;31.60
49184;DHT22;35021;49.214;12.270;2023-12-28T12:47:22;22.50;31.50
49184;DHT22;35021;49.214;12.270;2023-12-28T12:49:52;22.50;31.40
49184;DHT22;35021;49.214;12.270;2023-12-28T12:52:19;22.60;31.40
49184;DHT22;35021;49.214;12.270;2023-12-28T12:54:52;22.60;31.40
49184;DHT22;35021;49.214;12.270;2023-12-28T12:57:19;22.60;31.40
49184;DHT22;35021;49.214;12.270;2023-12-28T12:59:46;22.60;31.40
49184;DHT22;35021;49.214;12.270;2023-12-28T13:02:13;22.60;31.30
49184;DHT22;35021;49.214;12.270;2023-12-28T13:04:40;22.60;31.30
49184;DHT22;35021;49.214;12.270;2023-12-28T13:07:07;22.60;31.30
49184;DHT22;35021;49.214;12.270;2023-12-28T13:09:36;22.50;31.20
49184;DHT22;35021;49.214;12.270;2023-12-28T13:12:03;22.50;31.20
49184;DHT22;35021;49.214;12.270;2023-12-28T13:14:30;22.40;31.20
49184;DHT22;35021;49.214;12.270;2023-12-28T13:16:57;22.40;31.30
49184;DHT22;35021;49.214;12.270;2023-12-28T13:19:24;22.30;31.30
49184;DHT22;35021;49.214;12.270;2023-12-28T13:21:51;22.30;31.30
49184;DHT22;35021;49.214;12.270;2023-12-28T13:24:18;22.30;31.30
49184;DHT22;35021;49.214;12.270;2023-12-28T13:26:46;22.30;31.30
49184;DHT22;35021;49.214;12.270;2023-12-28T13:29:13;22.30;31.20
49184;DHT22;35021;49.214;12.270;2023-12-28T13:31:40;22.30;31.10
49184;DHT22;35021;49.214;12.270;2023-12-28T13:34:08;22.30;31.00
49184;DHT22;35021;49.214;12.270;2023-12-28T13:36:35;22.40;31.00
49184;DHT22;35021;49.214;12.270;2023-12-28T13:39:02;22.40;30.90
49184;DHT22;35021;49.214;12.270;2023-12-28T13:41:29;22.40;30.90
49184;DHT22;35021;49.214;12.270;2023-12-28T13:43:57;22.50;30.90
49184;DHT22;35021;49.214;12.270;2023-12-28T13:46:28;22.60;31.00
49184;DHT22;35021;49.214;12.270;2023-12-28T13:48:56;22.60;30.90
49184;DHT22;35021;49.214;12.270;2023-12-28T13:51:24;22.60;30.90
49184;DHT22;35021;49.214;12.270;2023-12-28T13:53:51;22.60;30.80
49184;DHT22;35021;49.214;12.270;2023-12-28T13:56:18;22.70;30.80
49184;DHT22;35021;49.214;12.270;2023-12-28T13:58:44;22.70;30.80
49184;DHT22;35021;49.214;12.270;2023-12-28T14:01:11;22.70;30.70
49184;DHT22;35021;49.214;12.270;2023-12-28T14:03:40;22.70;30.80
49184;DHT22;35021;49.214;12.270;2023-12-28T14:06:07;22.70;30.80
49184;DHT22;35021;49.214;12.270;2023-12-28T14:08:35;22.70;30.90
49184;DHT22;35021;49.214;12.270;2023-12-28T14:11:03;22.70;30.90
49184;DHT22;35021;49.214;12.270;2023-12-28T14:13:34;22.60;30.90
49184;DHT22;35021;49.214;12.270;2023-12-28T14:16:03;22.50;31.00
49184;DHT22;35021;49.214;12.270;2023-12-28T14:18:30;22.40;31.10
49184;DHT22;35021;49.214;12.270;2023-12-28T14:20:57;22.30;31.10
49184;DHT22;35021;49.214;12.270;2023-12-28T14:23:24;22.30;31.10
49184;DHT22;35021;49.214;12.270;2023-12-28T14:25:51;22.30;31.90
49184;DHT22;35021;49.214;12.270;2023-12-28T14:28:21;22.30;31.20
49184;DHT22;35021;49.214;12.270;2023-12-28T14:30:48;22.20;31.10
49184;DHT22;35021;49.214;12.270;2023-12-28T14:33:15;22.30;31.20
49184;DHT22;35021;49.214;12.270;2023-12-28T14:35:43;22.20;31.20
49184;DHT22;35021;49.214;12.270;2023-12-28T14:38:16;22.20;31.30
49184;DHT22;35021;49.214;12.270;2023-12-28T14:40:43;22.20;31.30
49184;DHT22;35021;49.214;12.270;2023-12-28T14:43:10;22.20;31.40
49184;DHT22;35021;49.214;12.270;2023-12-28T14:45:38;22.20;31.40
49184;DHT22;35021;49.214;12.270;2023-12-28T14:48:05;22.20;31.50
49184;DHT22;35021;49.214;12.270;2023-12-28T14:50:32;22.20;31.50
49184;DHT22;35021;49.214;12.270;2023-12-28T14:52:59;22.20;31.50
49184;DHT22;35021;49.214;12.270;2023-12-28T14:55:27;22.20;31.50
49184;DHT22;35021;49.214;12.270;2023-12-28T14:57:54;22.20;31.50
49184;DHT22;35021;49.214;12.270;2023-12-28T15:00:21;22.30;31.50
49184;DHT22;35021;49.214;12.270;2023-12-28T15:02:49;22.30;31.50
49184;DHT22;35021;49.214;12.270;2023-12-28T15:05:16;22.30;31.40
49184;DHT22;35021;49.214;12.270;2023-12-28T15:07:43;22.30;31.40
49184;DHT22;35021;49.214;12.270;2023-12-28T15:10:10;22.40;31.50
49184;DHT22;35021;49.214;12.270;2023-12-28T15:12:38;22.30;31.50
49184;DHT22;35021;49.214;12.270;2023-12-28T15:15:05;22.30;31.50
49184;DHT22;35021;49.214;12.270;2023-12-28T15:17:33;22.30;31.60
49184;DHT22;35021;49.214;12.270;2023-12-28T15:20:00;22.20;31.50
49184;DHT22;35021;49.214;12.270;2023-12-28T15:22:28;22.20;31.70
49184;DHT22;35021;49.214;12.270;2023-12-28T15:24:55;22.20;31.80
49184;DHT22;35021;49.214;12.270;2023-12-28T15:27:23;22.10;31.80